Time;durP1;ratioP1;P1;durP2;ratioP2;P2;SDS_P1;SDS_P2;PMS_P1;PMS_P2;Temp;Humidity;BMP_temperature;BMP_pressure;BME280_temperature;BME280_humidity;BME280_pressure;Samples;Min_cycle;Max_cycle;Signal;HPM_P1;HPM_P2
2024/03/27 00:01:10;;;;;;;2.00;1.60;;;;;;;;;;5057533;28;20051;-72
2024/03/27 00:03:36;;;;;;;1.50;1.20;;;;;;;;;;5057592;28;20028;-73
2024/03/27 00:06:05;;;;;;;3.85;1.50;;;;;;;;;;5055735;28;20107;-71
2024/03/27 00:08:33;;;;;;;7.57;1.85;;;;;;;;;;5039970;28;20412;-72
2024/03/27 00:10:59;;;;;;;2.67;1.35;;;;;;;;;;5073029;28;20028;-72
2024/03/27 00:13:25;;;;;;;4.10;1.70;;;;;;;;;;5073912;28;20035;-71
2024/03/27 00:15:52;;;;;;;5.30;2.15;;;;;;;;;;5056997;28;20036;-71
2024/03/27 00:18:21;;;;;;;4.32;1.40;;;;;;;;;;5075624;28;20032;-71
2024/03/27 00:20:47;;;;;;;2.90;1.77;;;;;;;;;;5039169;28;20029;-71
2024/03/27 00:23:15;;;;;;;2.53;1.70;;;;;;;;;;5073458;28;20048;-72
2024/03/27 00:25:42;;;;;;;6.18;2.13;;;;;;;;;;5072940;28;20024;-72
2024/03/27 00:28:08;;;;;;;5.22;1.85;;;;;;;;;;5073152;28;20082;-72
2024/03/27 00:30:36;;;;;;;2.78;1.67;;;;;;;;;;5054347;28;20024;-71
2024/03/27 00:33:03;;;;;;;9.55;1.80;;;;;;;;;;5072491;28;20028;-72
2024/03/27 00:35:29;;;;;;;5.18;2.28;;;;;;;;;;5054256;28;20029;-72
2024/03/27 00:37:56;;;;;;;4.68;2.28;;;;;;;;;;5072287;28;20028;-71
2024/03/27 00:40:23;;;;;;;2.17;1.55;;;;;;;;;;5073000;28;20051;-70
2024/03/27 00:42:49;;;;;;;5.88;2.17;;;;;;;;;;5038527;28;20100;-71
2024/03/27 00:45:15;;;;;;;4.25;1.60;;;;;;;;;;5053569;28;20032;-71
2024/03/27 00:47:41;;;;;;;4.13;1.88;;;;;;;;;;5053347;28;20086;-71
2024/03/27 00:50:08;;;;;;;5.25;1.90;;;;;;;;;;5071787;28;20495;-72
2024/03/27 00:52:33;;;;;;;4.18;1.83;;;;;;;;;;5035026;28;20060;-69
2024/03/27 00:55:01;;;;;;;4.45;1.50;;;;;;;;;;5067750;28;20047;-69
2024/03/27 00:57:27;;;;;;;8.60;2.58;;;;;;;;;;5056389;28;20473;-68
2024/03/27 00:59:52;;;;;;;5.70;1.83;;;;;;;;;;5033985;28;20079;-67
2024/03/27 01:02:18;;;;;;;5.00;1.90;;;;;;;;;;5051052;28;20036;-69
2024/03/27 01:04:49;;;;;;;7.38;2.28;;;;;;;;;;5055198;28;20385;-69
2024/03/27 01:07:14;;;;;;;3.70;1.75;;;;;;;;;;5073902;28;20029;-69
2024/03/27 01:09:41;;;;;;;2.55;1.70;;;;;;;;;;5055364;28;20082;-69
2024/03/27 01:12:07;;;;;;;3.72;1.60;;;;;;;;;;5055146;28;20028;-69
2024/03/27 01:14:33;;;;;;;2.65;1.63;;;;;;;;;;5056318;28;20040;-68
2024/03/27 01:16:59;;;;;;;2.70;1.60;;;;;;;;;;5056439;28;20142;-68
2024/03/27 01:19:24;;;;;;;3.15;1.85;;;;;;;;;;5073606;28;20028;-68
2024/03/27 01:21:50;;;;;;;4.03;1.83;;;;;;;;;;5055589;28;20024;-69
2024/03/27 01:24:16;;;;;;;3.03;1.27;;;;;;;;;;5054794;28;20434;-69
2024/03/27 01:26:41;;;;;;;2.85;1.65;;;;;;;;;;5056467;28;20032;-70
2024/03/27 01:29:07;;;;;;;3.33;1.85;;;;;;;;;;5071340;28;20036;-67
2024/03/27 01:31:33;;;;;;;2.88;1.23;;;;;;;;;;5053030;28;20040;-67
2024/03/27 01:33:59;;;;;;;5.05;2.10;;;;;;;;;;5071076;28;20417;-67
2024/03/27 01:36:24;;;;;;;1.35;1.13;;;;;;;;;;5070824;28;20040;-69
2024/03/27 01:38:50;;;;;;;2.38;1.50;;;;;;;;;;5053062;28;20468;-67
2024/03/27 01:41:16;;;;;;;1.90;1.17;;;;;;;;;;5070757;28;20032;-69
2024/03/27 01:43:41;;;;;;;2.80;1.60;;;;;;;;;;5071033;28;20442;-69
2024/03/27 01:46:11;;;;;;;5.35;2.00;;;;;;;;;;5070838;28;20028;-68
2024/03/27 01:48:36;;;;;;;1.65;1.02;;;;;;;;;;5052984;28;20590;-68
2024/03/27 01:51:04;;;;;;;4.10;1.45;;;;;;;;;;5049860;28;20131;-71
2024/03/27 01:53:31;;;;;;;2.13;1.15;;;;;;;;;;5016012;28;20044;-70
2024/03/27 01:55:57;;;;;;;2.60;1.60;;;;;;;;;;5032071;28;20484;-69
2024/03/27 01:58:24;;;;;;;3.30;1.92;;;;;;;;;;5071630;28;20035;-71
2024/03/27 02:00:50;;;;;;;5.35;1.85;;;;;;;;;;5090578;28;20020;-70
2024/03/27 02:03:17;;;;;;;2.70;1.60;;;;;;;;;;5072844;28;20114;-67
2024/03/27 02:05:44;;;;;;;10.20;1.42;;;;;;;;;;5072628;28;20032;-69
2024/03/27 02:08:10;;;;;;;3.33;1.55;;;;;;;;;;5071534;28;20107;-67
2024/03/27 02:10:35;;;;;;;3.53;2.20;;;;;;;;;;5052957;28;20111;-68
2024/03/27 02:13:01;;;;;;;1.48;1.27;;;;;;;;;;5070238;28;20028;-68
2024/03/27 02:15:27;;;;;;;3.78;1.50;;;;;;;;;;5053354;28;20052;-69
2024/03/27 02:17:52;;;;;;;3.47;1.40;;;;;;;;;;5071003;28;20043;-68
2024/03/27 02:20:18;;;;;;;4.25;1.88;;;;;;;;;;5071280;28;20032;-69
2024/03/27 02:22:44;;;;;;;4.50;1.65;;;;;;;;;;5053236;28;20063;-68
2024/03/27 02:25:25;;;;;;;2.60;1.63;;;;;;;;;;5053954;28;20086;-70
2024/03/27 02:27:51;;;;;;;2.10;1.63;;;;;;;;;;5072023;28;20029;-68
2024/03/27 02:30:17;;;;;;;2.60;1.65;;;;;;;;;;5079280;28;20065;-68
2024/03/27 02:32:43;;;;;;;4.20;1.67;;;;;;;;;;5044397;28;20033;-69
2024/03/27 02:35:12;;;;;;;5.32;1.83;;;;;;;;;;5034899;28;20040;-69
2024/03/27 02:37:37;;;;;;;3.58;1.45;;;;;;;;;;5035336;28;20028;-69
2024/03/27 02:40:05;;;;;;;2.80;1.55;;;;;;;;;;5053207;28;20037;-68
2024/03/27 02:42:31;;;;;;;2.40;1.80;;;;;;;;;;5035147;28;20032;-68
2024/03/27 02:44:57;;;;;;;2.75;1.73;;;;;;;;;;5051113;28;20037;-68
2024/03/27 02:47:22;;;;;;;4.07;2.08;;;;;;;;;;5037895;28;20070;-69
2024/03/27 02:49:48;;;;;;;2.60;1.60;;;;;;;;;;5052811;28;20024;-69
2024/03/27 02:52:15;;;;;;;3.65;1.67;;;;;;;;;;5071071;28;20539;-68
2024/03/27 02:54:40;;;;;;;3.30;1.60;;;;;;;;;;5071506;28;20108;-68
2024/03/27 02:57:06;;;;;;;2.80;1.75;;;;;;;;;;5071536;28;20388;-68
2024/03/27 02:59:32;;;;;;;4.53;1.50;;;;;;;;;;5053316;28;20024;-68
2024/03/27 03:01:57;;;;;;;4.55;2.08;;;;;;;;;;5058313;28;20059;-67
2024/03/27 03:04:23;;;;;;;3.08;1.83;;;;;;;;;;5073259;28;20035;-68
2024/03/27 03:06:50;;;;;;;3.15;1.55;;;;;;;;;;5062452;28;20438;-68
2024/03/27 03:09:15;;;;;;;5.85;1.65;;;;;;;;;;5051928;28;20105;-68
2024/03/27 03:11:41;;;;;;;4.45;2.00;;;;;;;;;;5040879;28;20108;-69
2024/03/27 03:14:07;;;;;;;3.45;1.77;;;;;;;;;;5075152;28;20025;-69
2024/03/27 03:16:32;;;;;;;4.15;1.83;;;;;;;;;;5057468;28;20029;-68
2024/03/27 03:18:58;;;;;;;3.13;1.85;;;;;;;;;;5057213;28;20024;-68
2024/03/27 03:21:23;;;;;;;3.25;2.00;;;;;;;;;;5056397;28;20384;-68
2024/03/27 03:23:49;;;;;;;2.95;1.90;;;;;;;;;;5054744;28;20115;-67
2024/03/27 03:26:15;;;;;;;3.25;1.42;;;;;;;;;;5055078;28;20377;-67
2024/03/27 03:28:41;;;;;;;4.55;2.25;;;;;;;;;;5036555;28;20033;-68
2024/03/27 03:31:06;;;;;;;2.65;1.80;;;;;;;;;;5036749;28;20088;-68
2024/03/27 03:33:33;;;;;;;2.95;1.50;;;;;;;;;;5037969;28;20403;-69
2024/03/27 03:35:59;;;;;;;3.42;2.10;;;;;;;;;;5036361;28;20020;-67
2024/03/27 03:38:28;;;;;;;5.32;1.95;;;;;;;;;;5054512;28;20449;-70
2024/03/27 03:41:01;;;;;;;3.50;2.20;;;;;;;;;;5052980;28;20037;-68
2024/03/27 03:43:26;;;;;;;3.38;1.90;;;;;;;;;;5071372;28;20032;-67
2024/03/27 03:45:52;;;;;;;5.40;1.80;;;;;;;;;;5074602;28;20385;-67
2024/03/27 03:48:18;;;;;;;5.45;1.90;;;;;;;;;;5074775;28;20051;-69
2024/03/27 03:50:44;;;;;;;3.40;1.90;;;;;;;;;;5074131;28;20020;-67
2024/03/27 03:53:09;;;;;;;3.67;1.90;;;;;;;;;;5060253;28;20112;-68
2024/03/27 03:55:35;;;;;;;3.95;2.00;;;;;;;;;;5054693;28;20037;-68
2024/03/27 03:58:01;;;;;;;6.00;2.53;;;;;;;;;;5054579;28;20036;-68
2024/03/27 04:00:26;;;;;;;4.40;2.40;;;;;;;;;;5054869;28;20029;-68
2024/03/27 04:02:52;;;;;;;3.88;1.88;;;;;;;;;;5065246;28;20029;-67
2024/03/27 04:05:17;;;;;;;4.78;2.28;;;;;;;;;;5074249;28;20097;-69
2024/03/27 04:07:46;;;;;;;6.35;2.28;;;;;;;;;;5054371;28;20028;-69
2024/03/27 04:10:12;;;;;;;6.88;3.20;;;;;;;;;;5054244;28;20017;-68
2024/03/27 04:12:37;;;;;;;3.42;2.33;;;;;;;;;;5035982;28;20029;-68
2024/03/27 04:15:05;;;;;;;5.15;2.53;;;;;;;;;;5053919;28;20025;-68
2024/03/27 04:17:31;;;;;;;5.68;2.85;;;;;;;;;;5035863;28;20029;-69
2024/03/27 04:20:01;;;;;;;10.05;2.58;;;;;;;;;;5036000;28;20051;-68
2024/03/27 04:22:31;;;;;;;9.60;2.92;;;;;;;;;;5054054;28;20032;-68
2024/03/27 04:24:57;;;;;;;4.47;2.17;;;;;;;;;;5053951;28;20057;-68
2024/03/27 04:27:23;;;;;;;7.28;2.50;;;;;;;;;;5047653;28;20034;-68
2024/03/27 04:29:58;;;;;;;6.20;2.97;;;;;;;;;;5055625;28;20419;-68
2024/03/27 04:32:24;;;;;;;5.32;2.85;;;;;;;;;;5055441;28;20031;-68
2024/03/27 04:34:50;;;;;;;4.57;2.42;;;;;;;;;;5072710;28;20111;-69
2024/03/27 04:37:16;;;;;;;6.07;3.13;;;;;;;;;;5068175;28;20128;-68
2024/03/27 04:39:42;;;;;;;9.43;3.90;;;;;;;;;;5085670;28;20054;-69
2024/03/27 04:42:08;;;;;;;5.50;2.65;;;;;;;;;;5071425;28;20027;-70
2024/03/27 04:44:35;;;;;;;5.65;2.97;;;;;;;;;;5054244;28;20074;-69
2024/03/27 04:47:00;;;;;;;9.80;3.05;;;;;;;;;;5052652;28;20345;-68
2024/03/27 04:49:26;;;;;;;8.20;2.70;;;;;;;;;;5051972;28;20689;-68
2024/03/27 04:51:52;;;;;;;7.05;2.78;;;;;;;;;;5051700;28;20051;-69
2024/03/27 04:54:18;;;;;;;12.60;3.00;;;;;;;;;;5033851;28;20537;-68
2024/03/27 04:56:43;;;;;;;12.02;3.33;;;;;;;;;;5033390;28;20032;-68
2024/03/27 04:59:09;;;;;;;8.25;3.00;;;;;;;;;;5051783;28;20025;-70
2024/03/27 05:01:35;;;;;;;10.73;3.05;;;;;;;;;;5051526;28;20029;-68
2024/03/27 05:04:02;;;;;;;22.52;3.50;;;;;;;;;;5050329;28;20039;-70
2024/03/27 05:06:28;;;;;;;6.10;2.58;;;;;;;;;;5036837;28;20400;-69
2024/03/27 05:08:53;;;;;;;5.03;3.05;;;;;;;;;;5053217;28;20037;-69
2024/03/27 05:11:19;;;;;;;7.68;2.88;;;;;;;;;;5054075;28;20062;-68
2024/03/27 05:13:45;;;;;;;5.88;2.50;;;;;;;;;;5070981;28;20039;-67
2024/03/27 05:16:12;;;;;;;16.48;4.47;;;;;;;;;;5071493;28;20103;-69
2024/03/27 05:18:39;;;;;;;7.00;2.97;;;;;;;;;;5053575;28;20039;-69
2024/03/27 05:21:06;;;;;;;13.00;3.80;;;;;;;;;;5053054;28;20115;-69
2024/03/27 05:23:32;;;;;;;10.93;3.75;;;;;;;;;;5052804;28;20132;-70
2024/03/27 05:25:58;;;;;;;13.18;10.95;;;;;;;;;;5053075;28;20451;-69
2024/03/27 05:28:23;;;;;;;9.80;4.63;;;;;;;;;;5070724;28;20021;-69
2024/03/27 05:30:50;;;;;;;8.57;3.97;;;;;;;;;;5052769;28;20030;-68
2024/03/27 05:33:16;;;;;;;10.15;3.80;;;;;;;;;;5052070;28;20033;-70
2024/03/27 05:35:42;;;;;;;6.95;3.65;;;;;;;;;;5070752;28;20029;-69
2024/03/27 05:38:08;;;;;;;8.48;3.70;;;;;;;;;;5052662;28;20028;-69
2024/03/27 05:40:34;;;;;;;11.55;3.28;;;;;;;;;;5053256;28;20028;-68
2024/03/27 05:43:00;;;;;;;9.48;3.17;;;;;;;;;;5073474;28;20024;-68
2024/03/27 05:45:26;;;;;;;8.45;3.92;;;;;;;;;;5071191;28;20065;-68
2024/03/27 05:47:51;;;;;;;6.35;3.55;;;;;;;;;;5052536;28;20016;-67
2024/03/27 05:50:18;;;;;;;13.30;4.18;;;;;;;;;;5036783;28;20527;-68
2024/03/27 05:52:44;;;;;;;14.05;5.60;;;;;;;;;;5052328;28;20025;-68
2024/03/27 05:55:10;;;;;;;9.35;4.63;;;;;;;;;;5070601;28;20036;-69
2024/03/27 05:57:37;;;;;;;14.45;5.90;;;;;;;;;;5052429;28;20119;-69
2024/03/27 06:00:08;;;;;;;13.27;4.93;;;;;;;;;;5052112;28;20048;-68
2024/03/27 06:02:35;;;;;;;11.70;5.03;;;;;;;;;;5053503;28;20017;-67
2024/03/27 06:05:01;;;;;;;13.15;4.53;;;;;;;;;;5052156;28;20027;-68
2024/03/27 06:07:27;;;;;;;14.52;5.60;;;;;;;;;;5052349;28;20123;-69
2024/03/27 06:09:52;;;;;;;9.73;4.10;;;;;;;;;;5033125;28;20108;-68
2024/03/27 06:12:18;;;;;;;9.93;4.18;;;;;;;;;;5050869;28;20029;-70
2024/03/27 06:14:44;;;;;;;23.20;4.80;;;;;;;;;;5075928;28;20112;-69
2024/03/27 06:17:09;;;;;;;8.65;4.07;;;;;;;;;;5073638;28;20020;-69
2024/03/27 06:19:35;;;;;;;12.38;4.55;;;;;;;;;;5056601;28;20025;-68
2024/03/27 06:22:01;;;;;;;9.23;3.97;;;;;;;;;;5072000;28;20025;-69
2024/03/27 06:24:27;;;;;;;13.13;4.53;;;;;;;;;;5056261;28;20083;-71
2024/03/27 06:26:53;;;;;;;11.98;4.22;;;;;;;;;;5034115;28;20025;-68
2024/03/27 06:29:18;;;;;;;11.88;4.72;;;;;;;;;;5052146;28;20028;-68
2024/03/27 06:31:44;;;;;;;14.60;4.53;;;;;;;;;;5032840;28;20029;-68
2024/03/27 06:34:12;;;;;;;12.93;4.53;;;;;;;;;;5064797;28;20029;-69
2024/03/27 06:36:37;;;;;;;12.95;4.15;;;;;;;;;;5042942;28;20021;-67
2024/03/27 06:39:03;;;;;;;8.60;3.92;;;;;;;;;;5054130;28;20036;-68
2024/03/27 06:41:29;;;;;;;8.80;4.28;;;;;;;;;;5048792;28;20119;-68
2024/03/27 06:43:55;;;;;;;8.70;4.05;;;;;;;;;;5071891;28;20032;-69
2024/03/27 06:46:20;;;;;;;13.98;3.30;;;;;;;;;;5053598;28;21625;-69
2024/03/27 06:49:07;;;;;;;5.72;3.97;;;;;;;;;;5072833;28;20036;-72
2024/03/27 06:51:33;;;;;;;8.68;3.25;;;;;;;;;;5045714;28;20093;-70
2024/03/27 06:53:59;;;;;;;3.20;2.05;;;;;;;;;;5078384;28;20025;-70
2024/03/27 06:56:25;;;;;;;9.75;3.05;;;;;;;;;;5069050;28;20027;-68
2024/03/27 06:58:51;;;;;;;6.03;2.70;;;;;;;;;;5045075;28;20465;-70
2024/03/27 07:01:17;;;;;;;4.95;2.50;;;;;;;;;;5051432;28;20037;-70
2024/03/27 07:03:43;;;;;;;6.30;3.17;;;;;;;;;;5051873;28;20123;-69
2024/03/27 07:06:09;;;;;;;13.60;5.90;;;;;;;;;;5043572;28;20112;-69
2024/03/27 07:08:35;;;;;;;8.10;3.42;;;;;;;;;;5041260;28;20032;-70
2024/03/27 07:11:01;;;;;;;10.77;2.80;;;;;;;;;;5050263;28;20043;-70
2024/03/27 07:13:27;;;;;;;8.63;2.60;;;;;;;;;;5047304;28;20092;-70
2024/03/27 07:15:54;;;;;;;5.97;2.40;;;;;;;;;;5070202;28;20028;-69
2024/03/27 07:18:21;;;;;;;5.00;2.38;;;;;;;;;;5054116;28;20029;-69
2024/03/27 07:20:57;;;;;;;5.80;2.70;;;;;;;;;;5057412;28;20085;-70
2024/03/27 07:23:23;;;;;;;10.93;2.75;;;;;;;;;;5049818;28;20021;-69
2024/03/27 07:25:49;;;;;;;5.40;2.17;;;;;;;;;;5056987;28;20036;-69
2024/03/27 07:28:15;;;;;;;5.13;2.08;;;;;;;;;;5035889;28;20036;-72
2024/03/27 07:30:41;;;;;;;3.80;2.20;;;;;;;;;;5050224;28;20861;-69
2024/03/27 07:33:07;;;;;;;14.80;2.80;;;;;;;;;;5044737;28;20491;-70
2024/03/27 07:35:33;;;;;;;5.40;2.08;;;;;;;;;;5058855;28;20127;-68
2024/03/27 07:37:59;;;;;;;6.28;2.08;;;;;;;;;;5049420;28;20402;-70
2024/03/27 07:40:30;;;;;;;4.78;2.05;;;;;;;;;;5058003;28;20032;-68
2024/03/27 07:42:57;;;;;;;9.40;2.43;;;;;;;;;;5050428;28;20024;-69
2024/03/27 07:45:24;;;;;;;13.25;5.32;;;;;;;;;;5067183;28;20087;-70
2024/03/27 07:47:49;;;;;;;8.43;2.67;;;;;;;;;;5068600;28;20528;-70
2024/03/27 07:50:15;;;;;;;4.97;2.03;;;;;;;;;;5053648;28;20152;-70
2024/03/27 07:52:42;;;;;;;3.65;2.05;;;;;;;;;;5082588;28;20036;-71
2024/03/27 07:55:08;;;;;;;9.50;3.38;;;;;;;;;;5064302;28;20036;-72
2024/03/27 07:57:34;;;;;;;4.30;2.33;;;;;;;;;;5083484;28;20110;-70
2024/03/27 08:00:00;;;;;;;10.30;1.98;;;;;;;;;;5055600;28;20093;-70
2024/03/27 08:02:26;;;;;;;9.80;1.95;;;;;;;;;;5068015;28;20064;-70
2024/03/27 08:04:52;;;;;;;6.97;2.10;;;;;;;;;;5052895;28;20024;-71
2024/03/27 08:07:18;;;;;;;4.32;2.15;;;;;;;;;;5051614;28;20462;-70
2024/03/27 08:09:51;;;;;;;3.58;1.80;;;;;;;;;;5074109;28;20064;-69
2024/03/27 08:12:18;;;;;;;4.97;2.30;;;;;;;;;;5021040;28;20037;-71
2024/03/27 08:14:44;;;;;;;3.42;2.10;;;;;;;;;;5055186;28;20033;-70
2024/03/27 08:17:11;;;;;;;4.05;2.50;;;;;;;;;;5067174;28;20032;-71
2024/03/27 08:19:40;;;;;;;5.18;2.42;;;;;;;;;;5023359;28;20045;-70
2024/03/27 08:22:09;;;;;;;9.88;2.63;;;;;;;;;;5044319;28;20528;-69
2024/03/27 08:24:36;;;;;;;4.85;2.60;;;;;;;;;;5073684;28;20587;-69
2024/03/27 08:27:05;;;;;;;3.63;2.28;;;;;;;;;;5049904;28;20653;-68
2024/03/27 08:29:31;;;;;;;7.10;3.03;;;;;;;;;;5051069;28;20037;-72
2024/03/27 08:32:00;;;;;;;5.05;2.10;;;;;;;;;;5044634;28;20127;-72
2024/03/27 08:34:32;;;;;;;4.93;2.28;;;;;;;;;;5030586;28;20430;-71
2024/03/27 08:36:58;;;;;;;6.18;3.20;;;;;;;;;;5014082;28;20491;-69
2024/03/27 08:39:26;;;;;;;5.88;2.80;;;;;;;;;;5038757;28;20033;-70
2024/03/27 08:41:54;;;;;;;6.30;2.50;;;;;;;;;;5067684;28;20463;-70
2024/03/27 08:44:20;;;;;;;8.50;2.42;;;;;;;;;;5048899;28;20489;-69
2024/03/27 08:46:45;;;;;;;3.88;2.30;;;;;;;;;;5049571;28;20093;-69
2024/03/27 08:49:15;;;;;;;5.50;2.75;;;;;;;;;;5052014;28;20031;-71
2024/03/27 08:51:42;;;;;;;6.05;2.85;;;;;;;;;;5070838;28;20358;-71
2024/03/27 08:54:09;;;;;;;4.85;2.40;;;;;;;;;;5046927;28;20043;-71
2024/03/27 08:56:35;;;;;;;9.10;3.22;;;;;;;;;;5071195;28;20515;-70
2024/03/27 08:59:02;;;;;;;8.35;2.72;;;;;;;;;;5070820;28;20036;-71
2024/03/27 09:01:28;;;;;;;7.30;2.38;;;;;;;;;;5059395;28;20035;-71
2024/03/27 09:03:54;;;;;;;14.13;3.72;;;;;;;;;;5050379;28;20070;-69
2024/03/27 09:06:20;;;;;;;7.93;2.55;;;;;;;;;;5075991;28;20082;-71
2024/03/27 09:08:46;;;;;;;5.38;2.30;;;;;;;;;;5078616;28;20028;-69
2024/03/27 09:11:11;;;;;;;8.43;2.80;;;;;;;;;;5053901;28;20111;-69
2024/03/27 09:13:38;;;;;;;3.75;2.40;;;;;;;;;;5057764;28;20143;-70
2024/03/27 09:16:04;;;;;;;5.88;2.45;;;;;;;;;;5071783;28;20030;-72
2024/03/27 09:18:29;;;;;;;3.33;2.45;;;;;;;;;;5054497;28;20029;-70
2024/03/27 09:21:00;;;;;;;3.38;2.30;;;;;;;;;;5048008;28;20025;-69
2024/03/27 09:23:27;;;;;;;13.17;4.10;;;;;;;;;;5075259;28;20530;-70
2024/03/27 09:25:57;;;;;;;3.15;2.17;;;;;;;;;;5041149;28;20037;-70
2024/03/27 09:28:23;;;;;;;6.05;3.15;;;;;;;;;;5079571;28;20035;-68
2024/03/27 09:30:49;;;;;;;5.63;2.65;;;;;;;;;;5073532;28;20032;-70
2024/03/27 09:33:16;;;;;;;3.75;2.20;;;;;;;;;;5054120;28;20439;-71
2024/03/27 09:35:44;;;;;;;6.70;2.95;;;;;;;;;;5072313;28;20028;-71
2024/03/27 09:38:10;;;;;;;3.55;2.42;;;;;;;;;;5052268;28;20191;-69
2024/03/27 09:40:49;;;;;;;3.75;2.50;;;;;;;;;;5050029;28;20616;-70
2024/03/27 09:43:16;;;;;;;4.22;2.80;;;;;;;;;;5070213;28;20106;-70
2024/03/27 09:45:46;;;;;;;5.05;2.60;;;;;;;;;;5070053;28;20032;-71
2024/03/27 09:48:15;;;;;;;6.38;2.80;;;;;;;;;;5051566;28;20126;-69
2024/03/27 09:50:42;;;;;;;7.68;3.05;;;;;;;;;;5053943;28;20047;-72
2024/03/27 09:53:08;;;;;;;9.10;3.08;;;;;;;;;;5068676;28;20042;-70
2024/03/27 09:55:35;;;;;;;4.03;2.50;;;;;;;;;;5068855;28;21085;-68
2024/03/27 09:58:14;;;;;;;8.05;2.75;;;;;;;;;;5070150;28;20032;-69
2024/03/27 10:00:40;;;;;;;6.43;3.08;;;;;;;;;;5050597;28;20123;-69
2024/03/27 10:03:06;;;;;;;7.65;3.00;;;;;;;;;;5052933;28;20171;-68
2024/03/27 10:05:38;;;;;;;5.40;2.50;;;;;;;;;;5066808;28;20514;-72
2024/03/27 10:08:06;;;;;;;4.45;2.58;;;;;;;;;;5052674;28;20036;-69
2024/03/27 10:10:33;;;;;;;4.95;2.80;;;;;;;;;;5052561;28;20033;-69
2024/03/27 10:12:59;;;;;;;4.82;2.75;;;;;;;;;;5051643;28;20057;-70
2024/03/27 10:15:28;;;;;;;6.88;2.72;;;;;;;;;;5075684;28;20036;-70
2024/03/27 10:17:54;;;;;;;5.78;3.15;;;;;;;;;;5072437;28;20036;-69
2024/03/27 10:20:20;;;;;;;7.68;2.55;;;;;;;;;;5048201;28;20040;-71
2024/03/27 10:22:47;;;;;;;8.82;2.78;;;;;;;;;;5067275;28;20032;-71
2024/03/27 10:25:13;;;;;;;7.22;2.70;;;;;;;;;;5046164;28;20039;-70
2024/03/27 10:27:39;;;;;;;4.72;1.95;;;;;;;;;;5063202;28;20027;-72
2024/03/27 10:30:12;;;;;;;4.00;2.80;;;;;;;;;;5066470;28;20045;-69
2024/03/27 10:32:38;;;;;;;5.65;2.67;;;;;;;;;;5050910;28;20032;-71
2024/03/27 10:35:04;;;;;;;5.05;2.67;;;;;;;;;;5065462;28;20036;-72
2024/03/27 10:37:32;;;;;;;6.38;2.38;;;;;;;;;;5072214;28;20063;-71
2024/03/27 10:40:02;;;;;;;4.20;2.50;;;;;;;;;;5044388;28;20036;-70
2024/03/27 10:42:29;;;;;;;10.48;2.38;;;;;;;;;;5053362;28;20017;-70
2024/03/27 10:44:58;;;;;;;5.60;2.30;;;;;;;;;;5051765;28;20096;-69
2024/03/27 10:47:33;;;;;;;4.93;2.33;;;;;;;;;;5079121;28;20036;-69
2024/03/27 10:50:03;;;;;;;4.95;2.03;;;;;;;;;;5070231;28;20028;-71
2024/03/27 10:52:31;;;;;;;5.10;2.80;;;;;;;;;;5047512;28;20365;-72
2024/03/27 10:55:00;;;;;;;4.43;2.40;;;;;;;;;;5044613;28;20033;-71
2024/03/27 10:57:27;;;;;;;6.88;2.50;;;;;;;;;;5045913;28;20085;-71
2024/03/27 10:59:54;;;;;;;10.93;2.63;;;;;;;;;;5033645;28;20506;-69
2024/03/27 11:02:23;;;;;;;5.90;2.50;;;;;;;;;;5069576;28;20078;-71
2024/03/27 11:04:56;;;;;;;4.35;2.30;;;;;;;;;;5052035;28;20036;-71
2024/03/27 11:07:23;;;;;;;6.35;2.78;;;;;;;;;;5052606;28;20024;-69
2024/03/27 11:09:51;;;;;;;6.95;2.38;;;;;;;;;;5068894;28;20035;-69
2024/03/27 11:12:24;;;;;;;7.25;2.30;;;;;;;;;;5032050;28;20123;-72
2024/03/27 11:14:52;;;;;;;5.85;2.33;;;;;;;;;;5048277;28;20032;-70
2024/03/27 11:17:26;;;;;;;6.57;2.67;;;;;;;;;;5063278;28;20032;-73
2024/03/27 11:19:55;;;;;;;5.65;2.60;;;;;;;;;;5041108;28;20028;-69
2024/03/27 11:22:23;;;;;;;4.03;2.45;;;;;;;;;;5063410;28;20151;-71
2024/03/27 11:24:50;;;;;;;7.97;3.13;;;;;;;;;;5026904;28;20028;-70
2024/03/27 11:27:31;;;;;;;4.95;2.30;;;;;;;;;;5038832;28;20034;-72
2024/03/27 11:29:58;;;;;;;3.78;2.17;;;;;;;;;;5064011;28;20024;-72
2024/03/27 11:32:35;;;;;;;7.35;2.10;;;;;;;;;;5049975;28;20040;-71
2024/03/27 11:35:01;;;;;;;7.05;3.05;;;;;;;;;;5048989;28;20430;-69
2024/03/27 11:37:31;;;;;;;4.75;2.35;;;;;;;;;;5073390;28;20436;-69
2024/03/27 11:39:57;;;;;;;7.00;2.67;;;;;;;;;;5065776;28;20024;-70
2024/03/27 11:42:28;;;;;;;6.13;2.35;;;;;;;;;;5052837;28;20023;-71
2024/03/27 11:44:54;;;;;;;5.68;2.13;;;;;;;;;;5073930;28;20036;-68
2024/03/27 11:47:19;;;;;;;4.80;2.13;;;;;;;;;;5057663;28;21427;-70
2024/03/27 11:49:45;;;;;;;4.95;2.22;;;;;;;;;;5048839;28;20026;-73
2024/03/27 11:52:11;;;;;;;9.07;1.85;;;;;;;;;;5066828;28;20035;-70
2024/03/27 11:54:39;;;;;;;4.88;1.83;;;;;;;;;;5049323;28;20032;-72
2024/03/27 11:57:05;;;;;;;5.03;2.03;;;;;;;;;;5029744;28;20024;-71
2024/03/27 11:59:32;;;;;;;4.90;2.30;;;;;;;;;;5027058;28;20101;-71
2024/03/27 12:02:02;;;;;;;11.02;2.30;;;;;;;;;;5027662;28;20158;-70
2024/03/27 12:04:33;;;;;;;5.72;1.70;;;;;;;;;;5028128;28;20885;-73
2024/03/27 12:06:59;;;;;;;7.57;1.85;;;;;;;;;;5042745;28;20037;-69
2024/03/27 12:09:25;;;;;;;6.20;2.20;;;;;;;;;;5041671;28;20473;-70
2024/03/27 12:11:52;;;;;;;9.07;2.00;;;;;;;;;;5026999;28;20043;-70
2024/03/27 12:14:21;;;;;;;3.40;2.05;;;;;;;;;;5031271;28;20048;-70
2024/03/27 12:16:49;;;;;;;4.82;2.00;;;;;;;;;;5034652;28;20037;-71
2024/03/27 12:19:14;;;;;;;6.25;1.88;;;;;;;;;;5030187;28;20029;-71
2024/03/27 12:21:41;;;;;;;4.32;2.00;;;;;;;;;;5046512;28;20027;-69
2024/03/27 12:24:07;;;;;;;3.53;1.73;;;;;;;;;;5029201;28;20040;-71
2024/03/27 12:26:33;;;;;;;5.93;2.03;;;;;;;;;;5026032;28;20043;-71
2024/03/27 12:28:59;;;;;;;5.32;2.63;;;;;;;;;;5022940;28;20520;-70
2024/03/27 12:31:28;;;;;;;3.75;1.70;;;;;;;;;;5031484;28;20485;-69
2024/03/27 12:33:54;;;;;;;4.97;2.10;;;;;;;;;;5030032;28;20032;-71
2024/03/27 12:36:21;;;;;;;5.00;2.17;;;;;;;;;;5027376;28;20051;-69
2024/03/27 12:38:47;;;;;;;4.57;2.85;;;;;;;;;;5029668;28;20028;-70
2024/03/27 12:41:15;;;;;;;3.67;1.83;;;;;;;;;;5040776;28;20593;-70
2024/03/27 12:43:41;;;;;;;4.97;1.73;;;;;;;;;;5051044;28;20506;-72
2024/03/27 12:46:08;;;;;;;6.05;2.03;;;;;;;;;;5029061;28;20136;-70
2024/03/27 12:48:35;;;;;;;4.57;2.13;;;;;;;;;;5040355;28;20025;-72
2024/03/27 12:51:03;;;;;;;6.70;3.40;;;;;;;;;;5033114;28;20072;-69
2024/03/27 12:53:29;;;;;;;4.30;2.22;;;;;;;;;;5032819;28;20024;-71
2024/03/27 12:55:56;;;;;;;6.00;2.42;;;;;;;;;;5063062;28;20052;-73
2024/03/27 12:58:24;;;;;;;5.82;2.03;;;;;;;;;;5068981;28;20051;-71
2024/03/27 13:00:49;;;;;;;3.20;1.77;;;;;;;;;;5055054;28;20491;-72
2024/03/27 13:03:15;;;;;;;6.18;2.50;;;;;;;;;;5069875;28;20030;-71
2024/03/27 13:05:42;;;;;;;4.93;2.00;;;;;;;;;;5069125;28;20353;-69
2024/03/27 13:08:08;;;;;;;6.00;2.58;;;;;;;;;;5075160;28;20095;-71
2024/03/27 13:10:36;;;;;;;4.70;2.17;;;;;;;;;;5076594;28;20139;-69
2024/03/27 13:13:02;;;;;;;4.35;2.33;;;;;;;;;;5084836;28;20020;-71
2024/03/27 13:15:28;;;;;;;3.17;1.60;;;;;;;;;;5070771;28;20032;-70
2024/03/27 13:17:54;;;;;;;7.22;2.13;;;;;;;;;;5084794;28;20081;-73
2024/03/27 13:20:20;;;;;;;3.95;2.22;;;;;;;;;;5068917;28;20027;-71
2024/03/27 13:22:47;;;;;;;2.67;1.83;;;;;;;;;;5083567;28;20020;-71
2024/03/27 13:25:12;;;;;;;4.47;2.33;;;;;;;;;;5082558;28;20127;-70
2024/03/27 13:27:39;;;;;;;4.13;1.65;;;;;;;;;;5082033;28;20063;-72
2024/03/27 13:30:07;;;;;;;2.70;1.67;;;;;;;;;;5080286;28;20046;-69
2024/03/27 13:32:33;;;;;;;2.60;1.85;;;;;;;;;;5085237;28;20024;-70
2024/03/27 13:35:00;;;;;;;5.40;2.05;;;;;;;;;;5082772;28;20028;-71
2024/03/27 13:37:26;;;;;;;6.35;2.97;;;;;;;;;;5072931;28;20030;-70
2024/03/27 13:39:52;;;;;;;4.07;2.00;;;;;;;;;;5082554;28;20037;-70
2024/03/27 13:42:18;;;;;;;8.02;2.13;;;;;;;;;;5084819;28;20484;-70
2024/03/27 13:44:44;;;;;;;5.43;1.63;;;;;;;;;;5068016;28;20160;-71
2024/03/27 13:47:10;;;;;;;6.35;2.00;;;;;;;;;;5084074;28;20063;-71
2024/03/27 13:49:35;;;;;;;2.40;1.60;;;;;;;;;;5073101;28;20052;-71
2024/03/27 13:52:10;;;;;;;7.75;2.33;;;;;;;;;;5072887;28;20032;-72
2024/03/27 13:54:38;;;;;;;4.43;2.17;;;;;;;;;;5070079;28;20047;-71
2024/03/27 13:57:06;;;;;;;4.75;2.17;;;;;;;;;;5081325;28;20039;-70
2024/03/27 13:59:32;;;;;;;9.23;2.38;;;;;;;;;;5085043;28;20876;-71
2024/03/27 14:01:58;;;;;;;14.15;2.30;;;;;;;;;;5066694;28;20114;-69
2024/03/27 14:04:28;;;;;;;4.97;1.70;;;;;;;;;;5059711;28;20566;-72
2024/03/27 14:06:54;;;;;;;5.68;2.33;;;;;;;;;;5043562;28;20078;-71
2024/03/27 14:09:19;;;;;;;4.93;1.98;;;;;;;;;;5083444;28;20024;-70
2024/03/27 14:11:45;;;;;;;11.02;2.17;;;;;;;;;;5064343;28;20491;-69
2024/03/27 14:14:12;;;;;;;7.03;2.10;;;;;;;;;;5056671;28;20028;-71
2024/03/27 14:16:38;;;;;;;4.28;2.40;;;;;;;;;;5071364;28;20495;-70
2024/03/27 14:19:05;;;;;;;5.55;1.55;;;;;;;;;;5087463;28;20028;-71
2024/03/27 14:21:31;;;;;;;4.57;1.80;;;;;;;;;;5086475;28;20024;-69
2024/03/27 14:23:58;;;;;;;3.30;1.77;;;;;;;;;;5073353;28;20774;-71
2024/03/27 14:26:26;;;;;;;6.43;2.10;;;;;;;;;;5090248;28;20031;-69
2024/03/27 14:28:52;;;;;;;6.43;2.00;;;;;;;;;;5072007;28;20031;-71
2024/03/27 14:31:17;;;;;;;9.32;2.00;;;;;;;;;;5088144;28;20032;-69
2024/03/27 14:33:43;;;;;;;8.10;2.38;;;;;;;;;;5077073;28;20030;-71
2024/03/27 14:36:10;;;;;;;4.53;2.20;;;;;;;;;;5086318;28;20503;-69
2024/03/27 14:38:38;;;;;;;5.93;2.28;;;;;;;;;;5086840;28;20480;-69